sensor_id;sensor_type;location;lat;lon;timestamp;pressure;altitude;pressure_sealevel;temperature;humidity
51321;BME280;38732;49.556;6.286;2023-03-01T00:01:20;100628.09;;;3.09;52.55
51321;BME280;38732;49.556;6.286;2023-03-01T00:03:49;100632.72;;;2.99;52.48
51321;BME280;38732;49.556;6.286;2023-03-01T00:06:18;100632.00;;;3.02;52.16
51321;BME280;38732;49.556;6.286;2023-03-01T00:08:47;100627.13;;;3.07;52.39
51321;BME280;38732;49.556;6.286;2023-03-01T00:11:25;100625.31;;;3.04;52.87
51321;BME280;38732;49.556;6.286;2023-03-01T00:13:57;100630.91;;;2.97;52.99
51321;BME280;38732;49.556;6.286;2023-03-01T00:16:28;100625.66;;;2.94;52.28
51321;BME280;38732;49.556;6.286;2023-03-01T00:18:57;100627.63;;;2.99;52.93
51321;BME280;38732;49.556;6.286;2023-03-01T00:21:26;100623.81;;;2.91;52.31
51321;BME280;38732;49.556;6.286;2023-03-01T00:23:55;100626.47;;;2.93;51.54
51321;BME280;38732;49.556;6.286;2023-03-01T00:26:25;100622.00;;;2.89;52.16
51321;BME280;38732;49.556;6.286;2023-03-01T00:28:54;100624.91;;;2.78;52.73
51321;BME280;38732;49.556;6.286;2023-03-01T00:31:24;100624.75;;;2.75;53.12
51321;BME280;38732;49.556;6.286;2023-03-01T00:33:54;100624.38;;;2.68;52.99
51321;BME280;38732;49.556;6.286;2023-03-01T00:36:28;100628.03;;;2.73;53.88
51321;BME280;38732;49.556;6.286;2023-03-01T00:38:56;100623.66;;;2.70;53.30
51321;BME280;38732;49.556;6.286;2023-03-01T00:41:25;100618.00;;;2.59;54.15
51321;BME280;38732;49.556;6.286;2023-03-01T00:43:54;100620.47;;;2.42;55.88
51321;BME280;38732;49.556;6.286;2023-03-01T00:46:25;100620.66;;;2.79;53.29
51321;BME280;38732;49.556;6.286;2023-03-01T00:48:54;100619.88;;;2.80;53.85
51321;BME280;38732;49.556;6.286;2023-03-01T00:51:25;100624.56;;;2.89;52.77
51321;BME280;38732;49.556;6.286;2023-03-01T00:53:56;100614.13;;;3.02;52.16
51321;BME280;38732;49.556;6.286;2023-03-01T00:56:25;100624.81;;;3.11;51.99
51321;BME280;38732;49.556;6.286;2023-03-01T00:58:53;100616.91;;;3.07;52.60
51321;BME280;38732;49.556;6.286;2023-03-01T01:01:24;100622.03;;;3.07;52.73
51321;BME280;38732;49.556;6.286;2023-03-01T01:03:55;100622.47;;;2.98;52.72
51321;BME280;38732;49.556;6.286;2023-03-01T01:06:36;100629.53;;;3.03;54.13
51321;BME280;38732;49.556;6.286;2023-03-01T01:09:06;100619.25;;;3.02;52.77
51321;BME280;38732;49.556;6.286;2023-03-01T01:11:35;100627.63;;;2.99;53.38
51321;BME280;38732;49.556;6.286;2023-03-01T01:14:03;100620.41;;;2.91;53.40
51321;BME280;38732;49.556;6.286;2023-03-01T01:16:32;100624.78;;;2.93;53.58
51321;BME280;38732;49.556;6.286;2023-03-01T01:19:00;100621.75;;;3.00;53.29
51321;BME280;38732;49.556;6.286;2023-03-01T01:21:28;100621.28;;;3.09;52.98
51321;BME280;38732;49.556;6.286;2023-03-01T01:23:57;100613.66;;;3.09;52.43
51321;BME280;38732;49.556;6.286;2023-03-01T01:26:28;100612.50;;;3.20;52.26
51321;BME280;38732;49.556;6.286;2023-03-01T01:28:56;100609.94;;;3.20;51.88
51321;BME280;38732;49.556;6.286;2023-03-01T01:31:26;100611.84;;;3.24;51.71
51321;BME280;38732;49.556;6.286;2023-03-01T01:33:56;100609.19;;;2.87;52.49
51321;BME280;38732;49.556;6.286;2023-03-01T01:36:24;100599.28;;;3.29;51.80
51321;BME280;38732;49.556;6.286;2023-03-01T01:38:53;100601.09;;;3.32;51.19
51321;BME280;38732;49.556;6.286;2023-03-01T01:41:22;100606.22;;;3.32;51.58
51321;BME280;38732;49.556;6.286;2023-03-01T01:44:13;100605.56;;;3.36;51.54
51321;BME280;38732;49.556;6.286;2023-03-01T01:49:58;100594.00;;;3.24;51.40
51321;BME280;38732;49.556;6.286;2023-03-01T01:52:34;100597.56;;;3.28;51.45
51321;BME280;38732;49.556;6.286;2023-03-01T01:55:07;100597.56;;;3.28;52.12
51321;BME280;38732;49.556;6.286;2023-03-01T01:57:48;100595.81;;;3.27;51.52
51321;BME280;38732;49.556;6.286;2023-03-01T02:00:20;100583.91;;;3.28;52.01
51321;BME280;38732;49.556;6.286;2023-03-01T02:02:54;100578.72;;;3.26;51.83
51321;BME280;38732;49.556;6.286;2023-03-01T02:06:21;100577.78;;;3.24;52.18
51321;BME280;38732;49.556;6.286;2023-03-01T02:08:31;100571.81;;;3.23;52.07
51321;BME280;38732;49.556;6.286;2023-03-01T02:11:01;100563.16;;;3.20;51.78
51321;BME280;38732;49.556;6.286;2023-03-01T02:13:31;100555.50;;;3.20;52.29
51321;BME280;38732;49.556;6.286;2023-03-01T02:16:05;100555.28;;;3.15;51.90
51321;BME280;38732;49.556;6.286;2023-03-01T02:18:38;100543.28;;;3.14;52.68
51321;BME280;38732;49.556;6.286;2023-03-01T02:23:59;100530.34;;;3.10;52.42
51321;BME280;38732;49.556;6.286;2023-03-01T02:26:40;100532.69;;;3.05;53.18
51321;BME280;38732;49.556;6.286;2023-03-01T02:29:10;100517.63;;;3.11;52.78
51321;BME280;38732;49.556;6.286;2023-03-01T02:31:38;100524.06;;;3.03;53.28
51321;BME280;38732;49.556;6.286;2023-03-01T02:34:09;100514.59;;;3.00;53.32
51321;BME280;38732;49.556;6.286;2023-03-01T02:36:47;100507.00;;;3.02;53.66
51321;BME280;38732;49.556;6.286;2023-03-01T02:39:21;100507.06;;;3.03;53.53
51321;BME280;38732;49.556;6.286;2023-03-01T02:41:52;100505.78;;;2.94;53.33
51321;BME280;38732;49.556;6.286;2023-03-01T02:44:21;100505.00;;;2.95;53.66
51321;BME280;38732;49.556;6.286;2023-03-01T02:46:52;100506.00;;;2.98;53.59
51321;BME280;38732;49.556;6.286;2023-03-01T02:52:14;100518.00;;;3.01;53.54
51321;BME280;38732;49.556;6.286;2023-03-01T02:57:13;100513.28;;;2.91;53.58
51321;BME280;38732;49.556;6.286;2023-03-01T02:59:42;100512.69;;;2.96;53.51
51321;BME280;38732;49.556;6.286;2023-03-01T03:02:37;100509.13;;;2.93;53.85
51321;BME280;38732;49.556;6.286;2023-03-01T03:05:09;100510.81;;;2.92;53.69
51321;BME280;38732;49.556;6.286;2023-03-01T03:07:39;100509.91;;;2.92;53.97
51321;BME280;38732;49.556;6.286;2023-03-01T03:10:14;100508.69;;;2.84;53.95
51321;BME280;38732;49.556;6.286;2023-03-01T03:12:43;100506.78;;;2.79;54.26
51321;BME280;38732;49.556;6.286;2023-03-01T03:15:11;100513.56;;;2.79;54.60
51321;BME280;38732;49.556;6.286;2023-03-01T03:17:41;100497.41;;;2.78;54.90
51321;BME280;38732;49.556;6.286;2023-03-01T03:20:12;100509.06;;;2.73;54.26
51321;BME280;38732;49.556;6.286;2023-03-01T03:22:41;100504.97;;;2.77;54.55
51321;BME280;38732;49.556;6.286;2023-03-01T03:25:09;100508.19;;;2.73;54.16
51321;BME280;38732;49.556;6.286;2023-03-01T03:27:38;100511.47;;;2.70;54.35
51321;BME280;38732;49.556;6.286;2023-03-01T03:30:07;100506.59;;;2.75;53.95
51321;BME280;38732;49.556;6.286;2023-03-01T03:32:36;100500.66;;;2.76;54.25
51321;BME280;38732;49.556;6.286;2023-03-01T03:35:06;100500.59;;;2.74;53.87
51321;BME280;38732;49.556;6.286;2023-03-01T03:37:39;100486.09;;;2.73;53.96
51321;BME280;38732;49.556;6.286;2023-03-01T03:40:08;100489.59;;;2.75;54.38
51321;BME280;38732;49.556;6.286;2023-03-01T03:42:37;100483.81;;;2.79;55.10
51321;BME280;38732;49.556;6.286;2023-03-01T03:45:05;100488.00;;;2.77;54.65
51321;BME280;38732;49.556;6.286;2023-03-01T03:47:33;100486.00;;;2.72;54.91
51321;BME280;38732;49.556;6.286;2023-03-01T03:50:02;100476.19;;;2.79;56.33
51321;BME280;38732;49.556;6.286;2023-03-01T03:52:30;100476.91;;;2.77;55.34
51321;BME280;38732;49.556;6.286;2023-03-01T03:54:58;100475.31;;;2.79;54.37
51321;BME280;38732;49.556;6.286;2023-03-01T03:57:26;100471.31;;;2.84;55.55
51321;BME280;38732;49.556;6.286;2023-03-01T03:59:54;100468.69;;;2.83;55.75
51321;BME280;38732;49.556;6.286;2023-03-01T04:02:23;100462.78;;;2.84;54.65
51321;BME280;38732;49.556;6.286;2023-03-01T04:04:51;100461.59;;;2.77;54.52
51321;BME280;38732;49.556;6.286;2023-03-01T04:07:19;100462.34;;;2.74;54.97
51321;BME280;38732;49.556;6.286;2023-03-01T04:09:47;100457.91;;;2.70;54.51
51321;BME280;38732;49.556;6.286;2023-03-01T04:12:15;100454.56;;;2.53;57.08
51321;BME280;38732;49.556;6.286;2023-03-01T04:14:44;100460.59;;;2.73;55.18
51321;BME280;38732;49.556;6.286;2023-03-01T04:17:12;100461.69;;;2.78;54.99
51321;BME280;38732;49.556;6.286;2023-03-01T04:19:40;100453.81;;;2.74;54.66
51321;BME280;38732;49.556;6.286;2023-03-01T04:22:08;100453.03;;;2.75;55.20
51321;BME280;38732;49.556;6.286;2023-03-01T04:24:36;100453.31;;;2.81;55.03
51321;BME280;38732;49.556;6.286;2023-03-01T04:27:05;100455.72;;;2.78;55.33
51321;BME280;38732;49.556;6.286;2023-03-01T04:29:33;100452.59;;;2.84;55.40
51321;BME280;38732;49.556;6.286;2023-03-01T04:32:01;100459.44;;;2.85;55.35
51321;BME280;38732;49.556;6.286;2023-03-01T04:34:29;100447.78;;;2.90;54.73
51321;BME280;38732;49.556;6.286;2023-03-01T04:36:57;100454.25;;;2.83;55.30
51321;BME280;38732;49.556;6.286;2023-03-01T04:39:26;100453.53;;;2.86;54.92
51321;BME280;38732;49.556;6.286;2023-03-01T04:41:54;100451.13;;;2.53;56.56
51321;BME280;38732;49.556;6.286;2023-03-01T04:44:22;100453.22;;;2.44;57.02
51321;BME280;38732;49.556;6.286;2023-03-01T04:46:50;100446.69;;;2.49;56.88
51321;BME280;38732;49.556;6.286;2023-03-01T04:49:18;100458.31;;;2.44;57.18
51321;BME280;38732;49.556;6.286;2023-03-01T04:51:47;100452.16;;;2.56;56.72
51321;BME280;38732;49.556;6.286;2023-03-01T04:54:15;100455.78;;;2.79;55.64
51321;BME280;38732;49.556;6.286;2023-03-01T04:56:43;100454.69;;;2.74;56.37
51321;BME280;38732;49.556;6.286;2023-03-01T04:59:11;100453.22;;;2.79;56.11
51321;BME280;38732;49.556;6.286;2023-03-01T05:01:39;100451.50;;;2.78;55.89
51321;BME280;38732;49.556;6.286;2023-03-01T05:04:08;100444.72;;;2.79;55.72
51321;BME280;38732;49.556;6.286;2023-03-01T05:06:36;100452.69;;;2.67;56.02
51321;BME280;38732;49.556;6.286;2023-03-01T05:09:04;100449.81;;;2.79;56.17
51321;BME280;38732;49.556;6.286;2023-03-01T05:11:33;100449.81;;;2.79;56.02
51321;BME280;38732;49.556;6.286;2023-03-01T05:14:02;100442.25;;;2.80;56.03
51321;BME280;38732;49.556;6.286;2023-03-01T05:16:30;100442.66;;;2.72;56.46
51321;BME280;38732;49.556;6.286;2023-03-01T05:18:59;100443.09;;;2.81;56.43
51321;BME280;38732;49.556;6.286;2023-03-01T05:21:27;100439.03;;;2.85;56.14
51321;BME280;38732;49.556;6.286;2023-03-01T05:23:55;100437.44;;;2.69;56.04
51321;BME280;38732;49.556;6.286;2023-03-01T05:28:13;100431.97;;;2.79;56.27
51321;BME280;38732;49.556;6.286;2023-03-01T05:30:41;100422.84;;;2.84;56.18
51321;BME280;38732;49.556;6.286;2023-03-01T05:33:09;100419.66;;;2.88;55.98
51321;BME280;38732;49.556;6.286;2023-03-01T05:35:37;100424.44;;;2.82;56.08
51321;BME280;38732;49.556;6.286;2023-03-01T05:38:06;100422.09;;;2.87;55.92
51321;BME280;38732;49.556;6.286;2023-03-01T05:40:34;100418.91;;;2.91;55.84
51321;BME280;38732;49.556;6.286;2023-03-01T05:43:03;100424.00;;;2.91;55.63
51321;BME280;38732;49.556;6.286;2023-03-01T05:45:31;100424.66;;;2.87;55.73
51321;BME280;38732;49.556;6.286;2023-03-01T05:48:00;100418.31;;;2.96;55.58
51321;BME280;38732;49.556;6.286;2023-03-01T05:50:30;100418.44;;;2.99;56.00
51321;BME280;38732;49.556;6.286;2023-03-01T05:53:12;100420.25;;;3.02;55.51
51321;BME280;38732;49.556;6.286;2023-03-01T05:55:41;100425.22;;;2.99;55.92
51321;BME280;38732;49.556;6.286;2023-03-01T05:58:12;100416.78;;;3.00;56.50
51321;BME280;38732;49.556;6.286;2023-03-01T06:00:42;100421.94;;;3.01;55.85
51321;BME280;38732;49.556;6.286;2023-03-01T06:03:13;100417.06;;;3.06;56.11
51321;BME280;38732;49.556;6.286;2023-03-01T06:05:41;100422.25;;;3.08;55.66
51321;BME280;38732;49.556;6.286;2023-03-01T06:08:10;100422.28;;;3.09;55.40
51321;BME280;38732;49.556;6.286;2023-03-01T06:10:39;100419.75;;;3.09;55.42
51321;BME280;38732;49.556;6.286;2023-03-01T06:13:08;100424.72;;;3.06;55.84
51321;BME280;38732;49.556;6.286;2023-03-01T06:15:36;100422.25;;;3.08;55.33
51321;BME280;38732;49.556;6.286;2023-03-01T06:18:04;100433.66;;;2.61;57.80
51321;BME280;38732;49.556;6.286;2023-03-01T06:20:32;100428.63;;;2.80;56.66
51321;BME280;38732;49.556;6.286;2023-03-01T06:23:00;100424.91;;;3.11;55.91
51321;BME280;38732;49.556;6.286;2023-03-01T06:25:29;100425.25;;;3.18;55.54
51321;BME280;38732;49.556;6.286;2023-03-01T06:27:57;100431.91;;;3.15;55.89
51321;BME280;38732;49.556;6.286;2023-03-01T06:30:26;100437.81;;;3.14;55.93
51321;BME280;38732;49.556;6.286;2023-03-01T06:32:56;100446.88;;;3.27;55.63
51321;BME280;38732;49.556;6.286;2023-03-01T06:35:24;100444.06;;;3.20;56.06
51321;BME280;38732;49.556;6.286;2023-03-01T06:37:52;100442.13;;;3.15;56.40
51321;BME280;38732;49.556;6.286;2023-03-01T06:40:21;100440.66;;;3.20;55.69
51321;BME280;38732;49.556;6.286;2023-03-01T06:42:50;100439.66;;;2.98;56.24
51321;BME280;38732;49.556;6.286;2023-03-01T06:45:20;100441.06;;;3.29;55.29
51321;BME280;38732;49.556;6.286;2023-03-01T06:47:48;100435.81;;;3.26;55.55
51321;BME280;38732;49.556;6.286;2023-03-01T06:50:17;100435.56;;;3.20;55.74
51321;BME280;38732;49.556;6.286;2023-03-01T06:52:46;100436.09;;;3.32;55.49
51321;BME280;38732;49.556;6.286;2023-03-01T06:55:14;100424.41;;;3.37;55.38
51321;BME280;38732;49.556;6.286;2023-03-01T06:57:42;100422.78;;;3.39;55.05
51321;BME280;38732;49.556;6.286;2023-03-01T07:00:11;100431.66;;;3.28;55.18
51321;BME280;38732;49.556;6.286;2023-03-01T07:02:39;100427.75;;;3.36;55.68
51321;BME280;38732;49.556;6.286;2023-03-01T07:05:08;100423.00;;;3.44;54.83
51321;BME280;38732;49.556;6.286;2023-03-01T07:07:36;100427.31;;;3.45;54.96
51321;BME280;38732;49.556;6.286;2023-03-01T07:10:05;100425.13;;;3.54;54.56
51321;BME280;38732;49.556;6.286;2023-03-01T07:12:33;100414.66;;;3.48;55.06
51321;BME280;38732;49.556;6.286;2023-03-01T07:15:02;100417.03;;;3.43;55.08
51321;BME280;38732;49.556;6.286;2023-03-01T07:17:30;100418.97;;;3.30;55.53
51321;BME280;38732;49.556;6.286;2023-03-01T07:19:58;100415.28;;;3.42;55.29
51321;BME280;38732;49.556;6.286;2023-03-01T07:22:26;100414.88;;;3.53;55.08
51321;BME280;38732;49.556;6.286;2023-03-01T07:24:55;100407.47;;;3.59;55.22
51321;BME280;38732;49.556;6.286;2023-03-01T07:27:23;100407.75;;;3.65;54.91
51321;BME280;38732;49.556;6.286;2023-03-01T07:29:51;100404.25;;;3.63;54.77
51321;BME280;38732;49.556;6.286;2023-03-01T07:32:19;100407.78;;;3.66;54.87
51321;BME280;38732;49.556;6.286;2023-03-01T07:34:47;100406.69;;;3.60;54.90
51321;BME280;38732;49.556;6.286;2023-03-01T07:37:16;100404.78;;;3.75;54.61
51321;BME280;38732;49.556;6.286;2023-03-01T07:39:44;100400.66;;;3.79;54.63
51321;BME280;38732;49.556;6.286;2023-03-01T07:42:12;100399.72;;;3.77;54.77
51321;BME280;38732;49.556;6.286;2023-03-01T07:44:40;100401.47;;;3.78;54.43
51321;BME280;38732;49.556;6.286;2023-03-01T07:47:08;100398.59;;;3.70;54.77
51321;BME280;38732;49.556;6.286;2023-03-01T07:49:37;100393.81;;;3.78;54.89
51321;BME280;38732;49.556;6.286;2023-03-01T07:52:05;100391.38;;;3.81;54.43
51321;BME280;38732;49.556;6.286;2023-03-01T07:54:33;100384.59;;;3.81;54.43
51321;BME280;38732;49.556;6.286;2023-03-01T07:57:01;100381.19;;;3.61;55.14
51321;BME280;38732;49.556;6.286;2023-03-01T07:59:29;100385.22;;;3.76;54.99
51321;BME280;38732;49.556;6.286;2023-03-01T08:01:58;100385.41;;;3.80;54.81
51321;BME280;38732;49.556;6.286;2023-03-01T08:04:26;100386.06;;;3.76;55.06
51321;BME280;38732;49.556;6.286;2023-03-01T08:06:54;100381.94;;;3.59;55.47
51321;BME280;38732;49.556;6.286;2023-03-01T08:09:23;100380.50;;;3.44;55.23
51321;BME280;38732;49.556;6.286;2023-03-01T08:11:51;100382.84;;;3.40;56.02
51321;BME280;38732;49.556;6.286;2023-03-01T08:14:19;100385.44;;;3.61;54.96
51321;BME280;38732;49.556;6.286;2023-03-01T08:16:49;100391.78;;;3.90;54.38
51321;BME280;38732;49.556;6.286;2023-03-01T08:19:17;100388.22;;;3.86;54.71
51321;BME280;38732;49.556;6.286;2023-03-01T08:21:46;100383.09;;;3.86;54.48
51321;BME280;38732;49.556;6.286;2023-03-01T08:24:14;100382.03;;;3.81;55.05
51321;BME280;38732;49.556;6.286;2023-03-01T08:26:42;100389.38;;;3.74;54.48
51321;BME280;38732;49.556;6.286;2023-03-01T08:29:10;100384.19;;;4.13;53.68
51321;BME280;38732;49.556;6.286;2023-03-01T08:31:39;100380.50;;;4.06;54.10
51321;BME280;38732;49.556;6.286;2023-03-01T08:34:10;100377.84;;;3.62;54.11
51321;BME280;38732;49.556;6.286;2023-03-01T08:36:41;100371.72;;;4.20;54.03
51321;BME280;38732;49.556;6.286;2023-03-01T08:39:11;100368.19;;;4.39;53.34
51321;BME280;38732;49.556;6.286;2023-03-01T08:41:41;100371.38;;;4.33;53.19
51321;BME280;38732;49.556;6.286;2023-03-01T08:44:10;100372.28;;;4.57;52.54
51321;BME280;38732;49.556;6.286;2023-03-01T08:46:41;100367.38;;;4.19;53.00
51321;BME280;38732;49.556;6.286;2023-03-01T08:49:18;100363.38;;;4.24;53.34
51321;BME280;38732;49.556;6.286;2023-03-01T08:51:47;100358.09;;;4.21;53.28
51321;BME280;38732;49.556;6.286;2023-03-01T08:54:20;100355.81;;;4.06;54.31
51321;BME280;38732;49.556;6.286;2023-03-01T08:56:49;100360.94;;;3.85;54.60
51321;BME280;38732;49.556;6.286;2023-03-01T08:59:18;100361.41;;;3.77;54.13
51321;BME280;38732;49.556;6.286;2023-03-01T09:01:46;100356.47;;;4.44;53.23
51321;BME280;38732;49.556;6.286;2023-03-01T09:04:15;100356.00;;;3.90;54.13
51321;BME280;38732;49.556;6.286;2023-03-01T09:06:43;100347.31;;;4.72;52.56
51321;BME280;38732;49.556;6.286;2023-03-01T09:09:16;100346.94;;;4.85;52.70
51321;BME280;38732;49.556;6.286;2023-03-01T09:11:45;100331.13;;;4.28;52.38
51321;BME280;38732;49.556;6.286;2023-03-01T09:14:14;100334.94;;;5.07;51.98
51321;BME280;38732;49.556;6.286;2023-03-01T09:16:42;100331.13;;;4.28;52.95
51321;BME280;38732;49.556;6.286;2023-03-01T09:19:10;100328.34;;;5.37;51.44
51321;BME280;38732;49.556;6.286;2023-03-01T09:21:39;100329.69;;;5.28;50.34
51321;BME280;38732;49.556;6.286;2023-03-01T09:24:14;100328.34;;;5.89;50.27
51321;BME280;38732;49.556;6.286;2023-03-01T09:26:43;100321.72;;;4.96;50.92
51321;BME280;38732;49.556;6.286;2023-03-01T09:29:11;100319.13;;;5.43;50.34
51321;BME280;38732;49.556;6.286;2023-03-01T09:31:40;100327.72;;;4.96;50.86
51321;BME280;38732;49.556;6.286;2023-03-01T09:34:09;100322.38;;;5.38;50.35
51321;BME280;38732;49.556;6.286;2023-03-01T09:36:37;100318.81;;;6.10;49.35
51321;BME280;38732;49.556;6.286;2023-03-01T09:39:05;100317.31;;;5.91;49.02
51321;BME280;38732;49.556;6.286;2023-03-01T09:47:19;100313.88;;;5.91;48.23
51321;BME280;38732;49.556;6.286;2023-03-01T09:53:23;100308.66;;;5.88;48.75
51321;BME280;38732;49.556;6.286;2023-03-01T09:56:01;100296.19;;;6.53;47.73
51321;BME280;38732;49.556;6.286;2023-03-01T09:58:39;100300.63;;;6.58;47.44
51321;BME280;38732;49.556;6.286;2023-03-01T10:01:34;100300.00;;;6.37;48.27
51321;BME280;38732;49.556;6.286;2023-03-01T10:04:31;100298.25;;;6.09;48.40
51321;BME280;38732;49.556;6.286;2023-03-01T10:09:34;100295.84;;;6.13;47.96
51321;BME280;38732;49.556;6.286;2023-03-01T10:12:07;100283.88;;;6.71;47.14
51321;BME280;38732;49.556;6.286;2023-03-01T10:20:15;100269.81;;;6.88;46.87
51321;BME280;38732;49.556;6.286;2023-03-01T10:22:44;100270.22;;;7.04;47.44
51321;BME280;38732;49.556;6.286;2023-03-01T10:25:14;100260.19;;;7.45;45.79
51321;BME280;38732;49.556;6.286;2023-03-01T10:27:51;100261.59;;;7.00;46.27
51321;BME280;38732;49.556;6.286;2023-03-01T10:30:34;100255.03;;;6.50;46.82
51321;BME280;38732;49.556;6.286;2023-03-01T10:33:04;100243.09;;;7.13;45.67
51321;BME280;38732;49.556;6.286;2023-03-01T10:35:34;100244.84;;;7.48;45.28
51321;BME280;38732;49.556;6.286;2023-03-01T10:40:49;100233.94;;;7.56;45.10
51321;BME280;38732;49.556;6.286;2023-03-01T10:43:18;100226.19;;;7.91;44.26
51321;BME280;38732;49.556;6.286;2023-03-01T10:45:47;100234.16;;;8.02;44.75
51321;BME280;38732;49.556;6.286;2023-03-01T10:48:24;100229.25;;;7.75;45.19
51321;BME280;38732;49.556;6.286;2023-03-01T10:56:06;100225.97;;;8.20;44.22
51321;BME280;38732;49.556;6.286;2023-03-01T10:58:37;100223.47;;;8.23;43.15
51321;BME280;38732;49.556;6.286;2023-03-01T11:01:24;100217.31;;;8.56;42.93
51321;BME280;38732;49.556;6.286;2023-03-01T11:06:34;100213.13;;;8.61;42.37
51321;BME280;38732;49.556;6.286;2023-03-01T11:09:13;100213.03;;;9.00;42.25
51321;BME280;38732;49.556;6.286;2023-03-01T11:11:43;100205.47;;;9.61;41.56
51321;BME280;38732;49.556;6.286;2023-03-01T11:14:20;100204.22;;;9.91;40.31
51321;BME280;38732;49.556;6.286;2023-03-01T11:17:00;100205.72;;;9.77;39.40
51321;BME280;38732;49.556;6.286;2023-03-01T11:19:30;100200.41;;;9.67;39.54
51321;BME280;38732;49.556;6.286;2023-03-01T11:22:17;100195.09;;;10.16;38.78
51321;BME280;38732;49.556;6.286;2023-03-01T11:24:48;100190.38;;;10.48;39.46
51321;BME280;38732;49.556;6.286;2023-03-01T11:27:31;100190.91;;;10.26;38.48
51321;BME280;38732;49.556;6.286;2023-03-01T11:30:12;100183.44;;;10.44;37.88
51321;BME280;38732;49.556;6.286;2023-03-01T11:32:53;100182.78;;;10.62;38.18
51321;BME280;38732;49.556;6.286;2023-03-01T11:35:27;100176.66;;;10.55;37.57
51321;BME280;38732;49.556;6.286;2023-03-01T11:40:45;100175.59;;;11.17;38.52
51321;BME280;38732;49.556;6.286;2023-03-01T11:51:19;100158.97;;;10.92;37.66
51321;BME280;38732;49.556;6.286;2023-03-01T12:02:20;100127.97;;;12.12;35.57
51321;BME280;38732;49.556;6.286;2023-03-01T12:07:53;100109.97;;;12.50;35.10
51321;BME280;38732;49.556;6.286;2023-03-01T12:10:30;100100.53;;;12.78;34.69
51321;BME280;38732;49.556;6.286;2023-03-01T12:19:19;100074.41;;;14.09;32.32
51321;BME280;38732;49.556;6.286;2023-03-01T12:24:41;100063.72;;;14.64;31.41
51321;BME280;38732;49.556;6.286;2023-03-01T12:27:26;100063.63;;;14.75;31.10
51321;BME280;38732;49.556;6.286;2023-03-01T12:32:40;100050.75;;;15.57;30.14
51321;BME280;38732;49.556;6.286;2023-03-01T12:35:24;100051.84;;;16.13;28.95
51321;BME280;38732;49.556;6.286;2023-03-01T12:38:08;100049.56;;;15.87;29.09
51321;BME280;38732;49.556;6.286;2023-03-01T12:43:39;100039.16;;;16.49;27.96
51321;BME280;38732;49.556;6.286;2023-03-01T12:49:16;100029.06;;;17.34;27.18
51321;BME280;38732;49.556;6.286;2023-03-01T12:51:59;100035.97;;;17.38;26.19
51321;BME280;38732;49.556;6.286;2023-03-01T12:54:31;100026.16;;;17.50;26.14
51321;BME280;38732;49.556;6.286;2023-03-01T12:57:14;100031.25;;;17.11;27.32
51321;BME280;38732;49.556;6.286;2023-03-01T12:59:59;100025.78;;;18.11;25.94
51321;BME280;38732;49.556;6.286;2023-03-01T13:02:38;100013.47;;;18.56;25.10
51321;BME280;38732;49.556;6.286;2023-03-01T13:07:52;100005.25;;;18.33;25.58
51321;BME280;38732;49.556;6.286;2023-03-01T13:10:52;99996.16;;;19.20;25.06
51321;BME280;38732;49.556;6.286;2023-03-01T13:13:26;99991.41;;;18.30;26.02
51321;BME280;38732;49.556;6.286;2023-03-01T13:15:55;99997.78;;;18.54;25.40
51321;BME280;38732;49.556;6.286;2023-03-01T13:18:26;99999.06;;;17.99;25.55
51321;BME280;38732;49.556;6.286;2023-03-01T13:20:56;99991.13;;;18.78;25.05
51321;BME280;38732;49.556;6.286;2023-03-01T13:23:34;99979.69;;;18.46;25.86
51321;BME280;38732;49.556;6.286;2023-03-01T13:26:12;99979.75;;;18.06;24.98
51321;BME280;38732;49.556;6.286;2023-03-01T13:28:52;99973.75;;;18.01;25.55
51321;BME280;38732;49.556;6.286;2023-03-01T13:33:58;99973.97;;;18.30;25.65
51321;BME280;38732;49.556;6.286;2023-03-01T13:44:32;99987.66;;;17.59;26.54
51321;BME280;38732;49.556;6.286;2023-03-01T13:49:48;99976.50;;;18.33;25.36
51321;BME280;38732;49.556;6.286;2023-03-01T13:55:00;99972.91;;;17.58;25.93
51321;BME280;38732;49.556;6.286;2023-03-01T13:57:34;99968.19;;;17.32;26.43
51321;BME280;38732;49.556;6.286;2023-03-01T14:00:04;99963.41;;;17.96;26.89
51321;BME280;38732;49.556;6.286;2023-03-01T14:02:33;99963.78;;;17.36;27.07
51321;BME280;38732;49.556;6.286;2023-03-01T14:05:01;99960.22;;;17.82;26.16
51321;BME280;38732;49.556;6.286;2023-03-01T14:07:29;99964.75;;;16.85;26.56
51321;BME280;38732;49.556;6.286;2023-03-01T14:10:00;99958.88;;;18.04;26.04
51321;BME280;38732;49.556;6.286;2023-03-01T14:18:04;99955.97;;;17.34;26.10
51321;BME280;38732;49.556;6.286;2023-03-01T14:20:43;99940.78;;;17.11;26.53
51321;BME280;38732;49.556;6.286;2023-03-01T14:23:14;99942.56;;;17.53;26.21
51321;BME280;38732;49.556;6.286;2023-03-01T14:26:01;99942.31;;;17.21;26.40
51321;BME280;38732;49.556;6.286;2023-03-01T14:28:31;99936.09;;;18.09;25.92
51321;BME280;38732;49.556;6.286;2023-03-01T14:31:01;99940.13;;;17.43;26.25
51321;BME280;38732;49.556;6.286;2023-03-01T14:33:35;99940.31;;;17.34;25.88
51321;BME280;38732;49.556;6.286;2023-03-01T14:36:10;99935.88;;;16.94;26.27
51321;BME280;38732;49.556;6.286;2023-03-01T14:38:41;99937.38;;;17.50;26.27
51321;BME280;38732;49.556;6.286;2023-03-01T14:41:19;99926.72;;;17.60;26.09
51321;BME280;38732;49.556;6.286;2023-03-01T14:43:53;99933.28;;;17.38;26.55
51321;BME280;38732;49.556;6.286;2023-03-01T14:46:28;99929.28;;;17.62;26.73
51321;BME280;38732;49.556;6.286;2023-03-01T14:49:12;99935.91;;;17.38;26.77
51321;BME280;38732;49.556;6.286;2023-03-01T14:51:46;99925.97;;;16.64;27.16
51321;BME280;38732;49.556;6.286;2023-03-01T14:54:25;99926.72;;;16.70;27.42
51321;BME280;38732;49.556;6.286;2023-03-01T14:56:58;99918.34;;;17.01;26.71
51321;BME280;38732;49.556;6.286;2023-03-01T14:59:28;99930.28;;;16.65;27.27
51321;BME280;38732;49.556;6.286;2023-03-01T15:01:57;99927.06;;;16.50;27.83
51321;BME280;38732;49.556;6.286;2023-03-01T15:04:28;99920.69;;;16.67;27.37
51321;BME280;38732;49.556;6.286;2023-03-01T15:06:57;99938.72;;;15.64;27.88